Time;durP1;ratioP1;P1;durP2;ratioP2;P2;SDS_P1;SDS_P2;PMS_P1;PMS_P2;Temp;Humidity;BMP_temperature;BMP_pressure;BME280_temperature;BME280_humidity;BME280_pressure;Samples;Min_cycle;Max_cycle;Signal;HPM_P1;HPM_P2
2024/02/08 05:45:38;;;;;;;1.40;0.80;;;;;;;3.73;100.00;98866.64;107342;1276;22530;-46
2024/02/08 05:48:06;;;;;;;0.60;0.60;;;;;;;3.70;100.00;98877.30;108761;1275;22558;-45
2024/02/08 05:50:34;;;;;;;1.00;0.80;;;;;;;3.68;100.00;98896.27;109507;1260;22215;-45
2024/02/08 05:53:06;;;;;;;1.90;0.90;;;;;;;3.70;100.00;98900.23;107639;1276;24770;-45
2024/02/08 05:55:34;;;;;;;0.50;0.50;;;;;;;3.73;100.00;98900.95;108153;1274;22534;-45
2024/02/08 05:58:06;;;;;;;1.60;0.70;;;;;;;3.76;100.00;98923.04;107881;1273;22471;-45
2024/02/08 06:00:45;;;;;;;2.20;0.90;;;;;;;3.78;100.00;98921.33;107414;1259;22023;-47
2024/02/08 06:03:25;;;;;;;0.70;0.70;;;;;;;3.81;100.00;98925.14;109740;1276;22605;-46
2024/02/08 06:06:06;;;;;;;1.40;0.80;;;;;;;3.82;100.00;98921.18;109001;1276;22545;-45
2024/02/08 06:08:39;;;;;;;1.10;0.70;;;;;;;3.84;100.00;98913.95;109399;1275;22301;-46
2024/02/08 06:11:37;;;;;;;1.00;0.60;;;;;;;3.87;100.00;98923.27;110245;1275;22148;-45
2024/02/08 06:14:00;;;;;;;1.90;0.80;;;;;;;3.90;100.00;98932.09;109701;1269;22407;-53
2024/02/08 06:16:33;;;;;;;0.60;0.60;;;;;;;3.91;100.00;98925.54;110035;1271;22340;-53
2024/02/08 06:24:44;;;;;;;2.00;0.80;;;;;;;4.03;100.00;98925.26;106316;1305;545367;-46
2024/02/08 06:27:14;;;;;;;1.30;0.70;;;;;;;4.05;100.00;98927.16;108140;1283;22805;-46
2024/02/08 06:29:50;;;;;;;1.10;0.80;;;;;;;4.09;100.00;98926.31;108881;1282;22569;-46
2024/02/08 06:35:19;;;;;;;1.70;1.30;;;;;;;4.15;100.00;98931.16;109044;1283;23385;-53
2024/02/08 06:38:00;;;;;;;2.60;1.30;;;;;;;4.14;100.00;98941.17;108961;1279;228263;-51
2024/02/08 06:41:23;;;;;;;1.50;1.00;;;;;;;4.13;100.00;98950.32;109092;1285;22418;-45
2024/02/08 06:44:42;;;;;;;2.50;1.20;;;;;;;4.12;100.00;98957.73;109462;1273;22437;-45
2024/02/08 07:40:24;;;;;;;2.20;1.40;;;;;;;4.32;100.00;98987.16;108079;1273;25212;-45
2024/02/08 07:43:34;;;;;;;1.90;1.30;;;;;;;4.37;100.00;98987.89;108475;1271;22547;-49
2024/02/08 07:46:18;;;;;;;1.40;1.10;;;;;;;4.42;100.00;99002.06;108887;1270;26570;-45
2024/02/08 07:48:46;;;;;;;2.00;1.30;;;;;;;4.45;100.00;98999.80;109890;1260;23124;-48
2024/02/08 07:51:23;;;;;;;1.30;1.00;;;;;;;4.47;100.00;99005.88;108714;1270;23163;-52
2024/02/08 07:54:10;;;;;;;2.30;1.30;;;;;;;4.48;100.00;99012.96;109726;1266;22942;-46
2024/02/08 07:57:00;;;;;;;1.40;1.20;;;;;;;4.47;100.00;99007.44;108790;1273;23725;-52
2024/02/08 07:59:34;;;;;;;2.00;1.50;;;;;;;4.48;100.00;99005.71;109824;1276;22229;-53
2024/02/08 08:02:12;;;;;;;1.30;1.10;;;;;;;4.49;100.00;99019.35;109430;1269;23001;-45
2024/02/08 08:04:51;;;;;;;1.60;1.50;;;;;;;4.47;100.00;99015.21;108354;1272;22529;-45
2024/02/08 08:07:25;;;;;;;1.60;1.40;;;;;;;4.49;100.00;99019.35;110036;1262;22392;-46
2024/02/08 08:10:08;;;;;;;2.70;2.10;;;;;;;4.52;100.00;99015.39;109361;1275;22351;-52
2024/02/08 08:12:37;;;;;;;2.00;1.80;;;;;;;4.54;100.00;99022.66;109593;1270;23986;-47
2024/02/08 08:15:13;;;;;;;3.30;2.20;;;;;;;4.53;100.00;99028.36;109410;1273;22601;-48
2024/02/08 08:17:44;;;;;;;2.00;1.40;;;;;;;4.53;100.00;99021.80;108594;1275;23051;-46
2024/02/08 08:23:07;;;;;;;5.10;2.30;;;;;;;4.56;100.00;99034.57;109849;1270;23381;-47
2024/02/08 08:26:00;;;;;;;1.70;1.60;;;;;;;4.55;100.00;99030.60;109872;1273;22504;-46
2024/02/08 08:28:39;;;;;;;2.70;1.60;;;;;;;4.56;100.00;99036.81;108519;1269;22437;-46
2024/02/08 08:33:59;;;;;;;2.30;1.70;;;;;;;4.52;100.00;99031.96;109765;1270;22463;-45
2024/02/08 08:36:28;;;;;;;2.00;1.50;;;;;;;4.50;100.00;99025.39;109435;1270;22648;-51
2024/02/08 08:41:59;;;;;;;2.30;1.80;;;;;;;4.51;100.00;99035.75;109995;1269;22434;-52
2024/02/08 08:44:48;;;;;;;3.30;2.10;;;;;;;4.52;100.00;99035.08;109754;1276;24093;-52
2024/02/08 08:47:17;;;;;;;4.20;2.30;;;;;;;4.56;100.00;99038.02;109400;1273;23208;-46
2024/02/08 08:49:50;;;;;;;4.10;2.40;;;;;;;4.59;100.00;99041.50;107834;1276;23101;-46
2024/02/08 08:52:25;;;;;;;2.40;2.20;;;;;;;4.59;100.00;99040.65;109344;1260;24359;-52
2024/02/08 08:55:17;;;;;;;4.10;2.30;;;;;;;4.58;100.00;99046.33;109835;1270;23158;-46
2024/02/08 08:57:47;;;;;;;3.90;2.10;;;;;;;4.59;100.00;99043.06;109376;1269;22487;-46
2024/02/08 09:00:32;;;;;;;4.70;1.70;;;;;;;4.62;100.00;99054.11;108405;1275;22521;-53
2024/02/08 09:03:04;;;;;;;4.10;2.30;;;;;;;4.63;100.00;99060.50;107806;1270;22535;-52
2024/02/08 09:05:36;;;;;;;3.20;2.40;;;;;;;4.67;100.00;99061.04;107971;1270;22555;-48
2024/02/08 09:08:42;;;;;;;4.20;2.10;;;;;;;4.72;100.00;99066.77;108240;1272;22522;-46
2024/02/08 09:11:24;;;;;;;3.20;1.80;;;;;;;4.75;100.00;99066.59;107996;1276;22546;-52
2024/02/08 09:13:53;;;;;;;3.90;2.20;;;;;;;4.75;100.00;99057.95;109543;1260;22466;-46
2024/02/08 09:21:39;;;;;;;3.70;1.80;;;;;;;4.76;100.00;99065.76;108998;1268;23215;-45
2024/02/08 09:24:26;;;;;;;5.00;2.50;;;;;;;4.76;100.00;99061.77;110001;1272;23342;-46
2024/02/08 09:27:15;;;;;;;3.60;1.70;;;;;;;4.75;100.00;99071.98;108684;1270;22225;-52
2024/02/08 09:29:50;;;;;;;3.20;2.10;;;;;;;4.74;100.00;99065.73;110086;1269;23402;-46
2024/02/08 09:35:11;;;;;;;4.80;2.10;;;;;;;4.66;100.00;99057.94;110092;1276;22334;-52
2024/02/08 09:37:47;;;;;;;6.40;1.60;;;;;;;4.65;100.00;99060.00;110158;1260;22966;-53
2024/02/08 09:40:36;;;;;;;2.80;1.50;;;;;;;4.65;100.00;99059.48;110148;1273;22403;-52
2024/02/08 09:43:16;;;;;;;7.50;1.60;;;;;;;4.64;100.00;99060.86;109479;1270;22508;-52
2024/02/08 09:46:01;;;;;;;4.50;1.90;;;;;;;4.63;100.00;99062.21;107427;1275;22553;-51
2024/02/08 09:48:36;;;;;;;4.10;2.00;;;;;;;4.62;100.00;99053.77;109082;1275;22624;-46
2024/02/08 09:51:13;;;;;;;3.30;2.00;;;;;;;4.60;100.00;99059.63;107702;1273;22621;-51
2024/02/08 09:53:51;;;;;;;5.30;2.50;;;;;;;4.58;100.00;99068.26;107785;1259;22535;-45
2024/02/08 09:56:28;;;;;;;9.10;3.30;;;;;;;4.56;100.00;99063.93;108885;1274;24202;-46
2024/02/08 09:59:02;;;;;;;4.70;2.60;;;;;;;4.55;100.00;99061.69;110053;1269;22525;-46
2024/02/08 10:01:44;;;;;;;5.20;2.30;;;;;;;4.55;100.00;99062.54;108112;1270;22497;-46
2024/02/08 10:04:19;;;;;;;5.80;2.90;;;;;;;4.55;100.00;99071.70;107876;1275;22520;-47
2024/02/08 10:09:46;;;;;;;4.60;2.50;;;;;;;4.52;100.00;99078.23;109735;1274;22569;-46
2024/02/08 10:12:30;;;;;;;6.10;2.80;;;;;;;4.49;100.00;99081.86;109455;1272;24179;-53
2024/02/08 10:14:59;;;;;;;4.80;2.00;;;;;;;4.48;100.00;99084.29;110002;1270;23146;-52
2024/02/08 10:17:40;;;;;;;4.00;2.20;;;;;;;4.47;100.00;99080.99;107950;1271;24231;-53
2024/02/08 10:28:31;;;;;;;6.40;2.30;;;;;;;4.48;100.00;99078.92;108041;1274;23888;-46
2024/02/08 10:31:05;;;;;;;13.40;2.90;;;;;;;4.48;100.00;99080.30;108163;1273;25461;-54
2024/02/08 10:33:37;;;;;;;5.60;2.70;;;;;;;4.49;100.00;99078.75;108968;1270;25271;-46
2024/02/08 10:36:19;;;;;;;5.10;2.20;;;;;;;4.51;100.00;99078.24;108371;1273;23907;-53
2024/02/08 10:42:01;;;;;;;5.60;2.80;;;;;;;4.58;100.00;99081.89;106646;1276;22529;-53
2024/02/08 10:44:32;;;;;;;7.40;2.80;;;;;;;4.57;100.00;99078.95;106979;1270;22525;-46
2024/02/08 10:47:09;;;;;;;7.50;2.20;;;;;;;4.57;100.00;99074.47;110197;1271;22321;-46
2024/02/08 10:49:50;;;;;;;6.80;2.50;;;;;;;4.58;100.00;99081.04;108700;1272;24234;-46
2024/02/08 10:52:22;;;;;;;4.90;2.60;;;;;;;4.60;100.00;99086.58;110148;1269;22261;-53
2024/02/08 10:54:53;;;;;;;4.40;1.90;;;;;;;4.60;100.00;99091.24;110172;1270;23642;-46
2024/02/08 11:03:08;;;;;;;6.40;2.70;;;;;;;4.58;100.00;99088.12;110102;1273;22185;-47
2024/02/08 11:09:09;;;;;;;4.90;2.70;;;;;;;4.60;100.00;99092.11;109393;1268;23211;-53
2024/02/08 11:12:14;;;;;;;6.60;2.40;;;;;;;4.62;100.00;99090.20;108270;1254;22607;-47
2024/02/08 11:15:13;;;;;;;7.00;2.90;;;;;;;4.64;100.00;99095.73;109209;1272;22445;-45
2024/02/08 11:17:57;;;;;;;8.00;3.10;;;;;;;4.65;100.00;99098.86;109779;1270;22405;-53
2024/02/08 11:21:05;;;;;;;6.40;3.10;;;;;;;4.66;99.97;99098.02;109465;1273;22225;-47
2024/02/08 11:31:59;;;;;;;3.70;1.70;;;;;;;4.67;97.52;99107.16;107730;1276;25433;-57
2024/02/08 11:41:57;;;;;;;4.00;1.50;;;;;;;4.64;96.18;99106.11;107991;1276;27130;-57
2024/02/08 11:44:35;;;;;;;3.30;1.90;;;;;;;4.64;96.03;99106.48;107909;1273;23299;-50
2024/02/08 11:47:18;;;;;;;4.00;2.00;;;;;;;4.64;95.84;99110.42;110081;1276;22522;-48
2024/02/08 11:50:01;;;;;;;3.70;1.90;;;;;;;4.64;95.91;99108.19;110024;1276;22398;-55
2024/02/08 11:52:33;;;;;;;3.00;1.80;;;;;;;4.64;95.79;99107.67;109983;1273;22341;-54
2024/02/08 11:55:06;;;;;;;2.70;1.30;;;;;;;4.64;95.28;99110.60;109728;1270;22540;-56
2024/02/08 11:57:53;;;;;;;3.20;1.90;;;;;;;4.63;94.52;99115.42;108442;1269;22537;-56
2024/02/08 12:00:24;;;;;;;2.90;1.30;;;;;;;4.58;92.24;99119.73;109044;1271;25342;-49
2024/02/08 12:03:13;;;;;;;3.40;1.40;;;;;;;4.54;92.18;99120.56;108860;1265;22572;-54
2024/02/08 12:10:25;;;;;;;3.40;1.50;;;;;;;4.56;93.30;99115.73;109023;1272;25310;-57
2024/02/08 12:13:38;;;;;;;5.80;3.50;;;;;;;4.57;93.27;99115.91;109149;1267;22842;-47
2024/02/08 12:16:38;;;;;;;7.10;3.30;;;;;;;4.59;92.81;99115.94;109880;1273;23296;-47
2024/02/08 12:19:30;;;;;;;3.30;1.90;;;;;;;4.63;94.05;99121.65;109906;1267;23227;-53
2024/02/08 12:22:04;;;;;;;2.70;1.50;;;;;;;4.66;93.03;99119.42;109974;1272;22450;-55
2024/02/08 12:24:34;;;;;;;2.80;1.70;;;;;;;4.65;92.25;99118.91;110143;1270;23238;-54
2024/02/08 12:27:12;;;;;;;1.70;1.30;;;;;;;4.65;92.28;99117.35;109434;1275;22482;-54
2024/02/08 12:29:50;;;;;;;3.50;1.70;;;;;;;4.64;91.30;99117.32;109975;1273;23046;-55
2024/02/08 12:36:24;;;;;;;3.40;2.00;;;;;;;4.57;89.51;99118.52;110181;1275;22440;-54
2024/02/08 12:39:59;;;;;;;2.90;1.60;;;;;;;4.50;89.80;99117.44;110220;1267;22215;-54
2024/02/08 12:50:37;;;;;;;3.30;1.70;;;;;;;4.53;89.48;99122.64;110064;1260;22548;-56
2024/02/08 12:53:18;;;;;;;4.20;2.40;;;;;;;4.51;89.33;99124.86;110074;1273;22353;-52
2024/02/08 12:59:29;;;;;;;3.30;1.90;;;;;;;4.42;88.89;99127.92;110114;1275;22307;-48
2024/02/08 13:02:07;;;;;;;4.20;2.10;;;;;;;4.42;88.93;99127.23;110036;1275;22234;-48
2024/02/08 13:08:44;;;;;;;2.00;1.50;;;;;;;4.42;88.25;99134.33;108889;1270;25452;-55
2024/02/08 13:11:18;;;;;;;;;;;;;;;4.40;87.92;99128.08;107906;1270;23309;-52
2024/02/08 13:13:48;;;;;;;2.60;1.70;;;;;;;4.39;87.86;99128.93;109196;1275;22598;-46
2024/02/08 13:16:16;;;;;;;4.60;1.90;;;;;;;4.38;87.71;99133.77;108899;1263;22603;-47
2024/02/08 13:18:54;;;;;;;3.20;1.70;;;;;;;4.40;87.55;99138.95;108964;1275;22374;-48
2024/02/08 13:21:24;;;;;;;2.10;1.70;;;;;;;4.40;87.12;99141.04;110297;1275;22225;-53
2024/02/08 13:23:55;;;;;;;2.00;1.50;;;;;;;4.38;86.96;99146.54;107774;1275;25233;-53
2024/02/08 13:26:25;;;;;;;3.90;1.80;;;;;;;4.35;87.50;99144.96;110326;1270;22277;-48
2024/02/08 13:29:03;;;;;;;3.00;1.80;;;;;;;4.33;87.39;99150.81;110325;1275;22240;-52
2024/02/08 13:31:31;;;;;;;2.60;1.50;;;;;;;4.28;86.65;99152.87;110365;1275;23136;-48
2024/02/08 13:34:01;;;;;;;3.20;1.90;;;;;;;4.23;86.12;99148.85;110154;1275;22696;-47
2024/02/08 13:36:29;;;;;;;2.70;1.90;;;;;;;4.16;85.81;99153.46;110302;1267;22444;-48
2024/02/08 13:38:57;;;;;;;1.90;1.30;;;;;;;4.10;85.51;99157.56;110177;1273;22223;-53
2024/02/08 13:41:24;;;;;;;1.90;1.30;;;;;;;4.05;85.25;99154.93;110308;1275;23448;-48
2024/02/08 13:43:52;;;;;;;1.80;1.30;;;;;;;4.03;85.02;99148.53;110242;1274;22926;-53
2024/02/08 13:46:21;;;;;;;2.80;1.90;;;;;;;4.01;84.88;99146.63;110356;1275;22282;-49
2024/02/08 13:48:49;;;;;;;2.70;1.80;;;;;;;4.01;85.30;99148.52;110357;1270;23246;-50
2024/02/08 13:51:17;;;;;;;2.60;1.50;;;;;;;4.01;84.88;99147.83;110266;1275;23099;-55
2024/02/08 13:53:45;;;;;;;2.30;1.60;;;;;;;4.02;84.59;99150.77;110324;1275;22281;-54
2024/02/08 13:56:13;;;;;;;2.70;1.70;;;;;;;4.00;84.45;99157.65;110383;1274;22216;-48
2024/02/08 13:58:41;;;;;;;2.70;1.60;;;;;;;3.98;84.17;99164.36;110399;1275;22697;-48
2024/02/08 14:01:11;;;;;;;3.20;2.00;;;;;;;3.98;84.42;99162.81;110365;1275;22373;-48
2024/02/08 14:03:39;;;;;;;1.70;1.40;;;;;;;3.98;84.13;99173.15;109639;1275;22615;-54
2024/02/08 14:06:09;;;;;;;1.90;1.30;;;;;;;3.96;83.75;99167.98;108104;1267;22378;-49
2024/02/08 14:08:43;;;;;;;1.80;1.20;;;;;;;3.92;83.56;99168.45;109998;1275;23361;-48
2024/02/08 14:11:16;;;;;;;2.50;1.20;;;;;;;3.89;83.35;99173.08;108875;1275;22509;-53
2024/02/08 14:13:44;;;;;;;2.10;1.00;;;;;;;3.85;83.68;99173.23;110389;1275;22277;-54
2024/02/08 14:16:15;;;;;;;3.50;1.30;;;;;;;3.82;83.96;99178.54;110014;1275;22814;-53
2024/02/08 14:18:48;;;;;;;2.60;1.30;;;;;;;3.80;84.08;99175.92;110438;1275;22213;-55
2024/02/08 14:21:24;;;;;;;2.40;1.20;;;;;;;3.79;84.57;99179.20;110353;1275;22352;-49
2024/02/08 14:23:59;;;;;;;1.30;1.10;;;;;;;3.78;84.10;99180.58;109127;1264;24197;-49
2024/02/08 14:26:42;;;;;;;3.60;1.00;;;;;;;3.77;84.56;99179.54;110130;1275;23210;-55
2024/02/08 14:29:12;;;;;;;1.10;0.90;;;;;;;3.76;84.64;99180.20;110332;1263;22967;-53
2024/02/08 14:31:41;;;;;;;1.70;1.40;;;;;;;3.75;85.04;99187.27;109994;1275;22346;-49
2024/02/08 14:34:10;;;;;;;2.30;1.10;;;;;;;3.75;85.08;99192.95;108644;1274;23169;-50
2024/02/08 14:36:42;;;;;;;1.40;1.00;;;;;;;3.74;85.26;99189.84;108386;1270;25224;-49
2024/02/08 14:39:27;;;;;;;2.20;1.40;;;;;;;3.74;85.70;99188.64;108012;1275;23112;-49
2024/02/08 14:41:58;;;;;;;16.40;9.80;;;;;;;3.74;85.79;99190.02;109763;1275;22288;-54
2024/02/08 14:44:41;;;;;;;13.40;8.60;;;;;;;3.73;85.96;99183.29;107717;1275;24173;-49
2024/02/08 14:47:21;;;;;;;17.80;6.70;;;;;;;3.72;86.11;99184.67;109939;1274;23241;-48
2024/02/08 14:49:58;;;;;;;25.30;6.80;;;;;;;3.72;86.36;99184.30;108231;1275;25220;-54
2024/02/08 14:52:34;;;;;;;21.80;9.50;;;;;;;3.70;86.59;99183.25;110317;1274;22193;-53
2024/02/08 14:55:20;;;;;;;8.80;3.50;;;;;;;3.69;86.65;99181.69;110329;1267;22289;-53
2024/02/08 14:57:52;;;;;;;4.80;2.20;;;;;;;3.68;86.80;99184.61;109931;1270;22734;-49
2024/02/08 15:03:07;;;;;;;2.00;1.50;;;;;;;3.67;87.23;99179.79;110304;1275;22151;-54
2024/02/08 15:05:59;;;;;;;3.80;2.20;;;;;;;3.69;87.27;99177.02;110318;1275;22410;-49
2024/02/08 15:11:25;;;;;;;4.20;2.80;;;;;;;3.75;87.87;99184.69;110298;1275;23503;-54
2024/02/08 15:13:54;;;;;;;6.50;3.50;;;;;;;3.82;87.99;99190.10;110264;1275;22972;-49
2024/02/08 15:16:30;;;;;;;3.80;2.50;;;;;;;3.85;88.09;99201.16;110299;1275;22902;-54
2024/02/08 15:18:58;;;;;;;2.80;2.10;;;;;;;3.89;88.18;99201.21;110219;1275;22269;-54
2024/02/08 15:21:34;;;;;;;2.90;2.00;;;;;;;3.92;88.08;99202.44;109955;1275;22746;-48
